Time;durP1;ratioP1;P1;durP2;ratioP2;P2;SDS_P1;SDS_P2;PMS_P1;PMS_P2;Temp;Humidity;BMP_temperature;BMP_pressure;BME280_temperature;BME280_humidity;BME280_pressure;Samples;Min_cycle;Max_cycle;Signal;HPM_P1;HPM_P2
2022/04/26 03:36:16;;;;;;;28.77;15.97;;;9.20;99.90;;;;;;5035968;28;20414;-73
2022/04/26 03:38:47;;;;;;;27.67;15.87;;;9.20;99.90;;;;;;5017998;28;20486;-73
2022/04/26 03:41:22;;;;;;;23.40;16.57;;;9.10;99.90;;;;;;5001893;28;20434;-73
2022/04/26 03:43:54;;;;;;;19.17;14.70;;;9.10;99.90;;;;;;5017669;28;20848;-73
2022/04/26 03:46:25;;;;;;;19.13;14.27;;;9.10;99.90;;;;;;5035484;28;20885;-73
2022/04/26 03:48:57;;;;;;;26.20;16.30;;;9.10;99.90;;;;;;5035353;28;20426;-73
2022/04/26 03:51:26;;;;;;;21.43;15.63;;;9.10;99.90;;;;;;5035257;28;20839;-73
2022/04/26 03:54:00;;;;;;;24.00;16.20;;;9.20;99.90;;;;;;5034902;28;20988;-72
2022/04/26 03:56:31;;;;;;;22.53;13.93;;;9.10;99.90;;;;;;5016603;28;20515;-74
2022/04/26 03:58:57;;;;;;;16.77;12.67;;;9.10;99.90;;;;;;5035044;28;20447;-74
2022/04/26 04:01:23;;;;;;;20.00;13.30;;;9.10;99.90;;;;;;5034904;28;20418;-72
2022/04/26 04:03:55;;;;;;;18.93;12.50;;;9.10;99.90;;;;;;5016922;28;20536;-73
2022/04/26 04:06:20;;;;;;;15.77;11.47;;;9.20;99.90;;;;;;5017031;28;20523;-73
2022/04/26 04:08:46;;;;;;;14.37;12.10;;;9.10;99.90;;;;;;5034849;28;21050;-73
2022/04/26 04:11:15;;;;;;;14.83;11.93;;;9.10;99.90;;;;;;5034862;28;20242;-73
2022/04/26 04:13:43;;;;;;;11.40;9.57;;;9.10;99.90;;;;;;5034797;28;20234;-72
2022/04/26 04:16:13;;;;;;;14.27;10.80;;;9.10;99.90;;;;;;5034739;28;20454;-73
2022/04/26 04:21:26;;;;;;;10.43;9.00;;;9.10;99.90;;;;;;5034881;28;20522;-73
2022/04/26 04:23:56;;;;;;;11.47;8.97;;;9.20;99.90;;;;;;5016849;28;20428;-73
2022/04/26 04:26:27;;;;;;;13.93;9.03;;;9.10;99.90;;;;;;5017244;28;20459;-73
2022/04/26 04:28:58;;;;;;;10.07;8.77;;;9.10;99.90;;;;;;5034013;28;20439;-72
2022/04/26 04:31:24;;;;;;;10.13;9.00;;;9.10;99.90;;;;;;5015673;28;20430;-73
2022/04/26 04:33:52;;;;;;;11.00;8.43;;;9.10;99.90;;;;;;5031136;28;20763;-76
2022/04/26 04:36:27;;;;;;;9.87;7.97;;;9.10;99.90;;;;;;5030767;28;20660;-73
2022/04/26 04:38:56;;;;;;;9.00;7.83;;;9.10;99.90;;;;;;5030615;28;20442;-73
2022/04/26 04:41:28;;;;;;;9.97;8.10;;;9.10;99.90;;;;;;5030613;28;20421;-73
2022/04/26 04:43:56;;;;;;;14.00;10.23;;;9.10;99.90;;;;;;5030151;28;20912;-73
2022/04/26 04:46:25;;;;;;;9.77;8.10;;;9.10;99.90;;;;;;5029810;28;20499;-73
2022/04/26 04:48:54;;;;;;;12.37;9.40;;;9.10;99.90;;;;;;5029709;28;20950;-73
2022/04/26 04:51:19;;;;;;;11.37;9.83;;;9.10;99.90;;;;;;5029781;28;20416;-73
2022/04/26 04:53:45;;;;;;;10.37;9.27;;;9.10;99.90;;;;;;5029647;28;20426;-73
2022/04/26 04:56:33;;;;;;;11.33;9.10;;;9.10;99.90;;;;;;5029896;28;20215;-73
2022/04/26 04:59:01;;;;;;;11.63;9.53;;;9.10;99.90;;;;;;5029551;28;20438;-73
2022/04/26 05:01:30;;;;;;;13.03;10.90;;;9.00;99.90;;;;;;5029950;28;21022;-73
2022/04/26 05:04:01;;;;;;;12.87;10.20;;;9.00;99.90;;;;;;5030717;28;20431;-73
2022/04/26 05:06:30;;;;;;;10.13;8.13;;;9.10;99.90;;;;;;5030180;28;20428;-73
2022/04/26 05:08:59;;;;;;;13.50;10.73;;;9.10;99.90;;;;;;5029547;28;20489;-73
2022/04/26 05:11:26;;;;;;;13.97;10.83;;;9.10;99.90;;;;;;5029502;28;20418;-73
2022/04/26 05:14:00;;;;;;;14.50;10.53;;;9.10;99.90;;;;;;5029395;28;20421;-73
2022/04/26 05:16:30;;;;;;;13.97;11.53;;;9.10;99.90;;;;;;5029175;28;20443;-73
2022/04/26 05:18:56;;;;;;;13.30;11.90;;;9.00;99.90;;;;;;5030744;28;20518;-73
2022/04/26 05:21:21;;;;;;;17.67;12.60;;;9.10;99.90;;;;;;5030311;28;20514;-73
2022/04/26 05:26:39;;;;;;;17.60;13.37;;;9.10;99.90;;;;;;5029486;28;20206;-72
2022/04/26 05:29:06;;;;;;;13.93;12.43;;;9.10;99.90;;;;;;5011324;28;20428;-73
2022/04/26 05:31:47;;;;;;;15.67;12.20;;;9.10;99.90;;;;;;5029442;28;20427;-73
2022/04/26 05:34:13;;;;;;;14.93;11.80;;;9.00;99.90;;;;;;5029050;28;20494;-73
2022/04/26 05:36:38;;;;;;;14.13;12.73;;;9.00;99.90;;;;;;5029183;28;20463;-73
2022/04/26 05:39:04;;;;;;;17.90;13.27;;;9.10;99.90;;;;;;5010598;28;20200;-73
2022/04/26 05:41:35;;;;;;;16.20;12.30;;;9.20;99.90;;;;;;5011082;28;20247;-73
2022/04/26 05:44:01;;;;;;;13.23;11.80;;;9.30;99.90;;;;;;5028785;28;20367;-73
2022/04/26 05:46:29;;;;;;;15.87;12.87;;;9.20;99.90;;;;;;5028331;28;20513;-73
2022/04/26 05:48:57;;;;;;;16.13;13.27;;;9.20;99.90;;;;;;5010441;28;20212;-73
2022/04/26 05:51:25;;;;;;;15.57;13.30;;;9.30;99.90;;;;;;5028487;28;20587;-73
2022/04/26 05:53:54;;;;;;;14.53;12.97;;;9.40;99.90;;;;;;5028664;28;20908;-73
2022/04/26 05:56:25;;;;;;;14.20;12.20;;;9.50;99.90;;;;;;5010909;28;20419;-73
2022/04/26 05:58:51;;;;;;;15.30;11.70;;;9.50;99.90;;;;;;5028587;28;20908;-73
2022/04/26 06:01:19;;;;;;;11.47;10.23;;;9.50;99.90;;;;;;5010410;28;20403;-73
2022/04/26 06:03:47;;;;;;;12.13;10.90;;;9.50;99.90;;;;;;5010754;28;20792;-73
2022/04/26 06:06:19;;;;;;;14.47;12.00;;;9.50;99.90;;;;;;5028491;28;21139;-73
2022/04/26 06:08:47;;;;;;;14.60;11.83;;;9.50;99.90;;;;;;5011898;28;20438;-72
2022/04/26 06:11:15;;;;;;;13.20;11.20;;;9.50;99.90;;;;;;5028646;28;20498;-72
2022/04/26 06:13:49;;;;;;;11.43;10.07;;;9.50;99.90;;;;;;5028581;28;20498;-72
2022/04/26 06:16:14;;;;;;;11.20;10.07;;;9.50;99.90;;;;;;5010142;28;20435;-72
2022/04/26 06:18:43;;;;;;;11.77;9.90;;;9.50;99.90;;;;;;5028671;28;20427;-73
2022/04/26 06:21:15;;;;;;;10.67;9.60;;;9.40;99.90;;;;;;5010646;28;20651;-72
2022/04/26 06:23:43;;;;;;;9.20;8.20;;;9.40;99.90;;;;;;5028161;28;20419;-73
2022/04/26 06:26:15;;;;;;;11.13;9.97;;;9.40;99.90;;;;;;5028298;28;20439;-72
2022/04/26 06:28:47;;;;;;;10.33;9.30;;;9.50;99.90;;;;;;5028458;28;20485;-72
2022/04/26 06:31:16;;;;;;;9.37;8.47;;;9.50;99.90;;;;;;5028458;28;20424;-73
2022/04/26 06:33:50;;;;;;;10.73;9.37;;;9.60;99.90;;;;;;5028334;28;20427;-72
2022/04/26 06:36:18;;;;;;;11.97;9.87;;;9.60;99.90;;;;;;5028301;28;20447;-72
2022/04/26 06:38:46;;;;;;;11.90;10.50;;;9.70;99.90;;;;;;5010671;28;20449;-72
2022/04/26 06:41:23;;;;;;;10.43;9.30;;;9.70;99.90;;;;;;5028476;28;20461;-73
2022/04/26 06:43:49;;;;;;;11.47;9.53;;;9.70;99.90;;;;;;5028192;28;20415;-73
2022/04/26 06:46:23;;;;;;;11.27;9.87;;;9.70;99.90;;;;;;5028094;28;20423;-73
2022/04/26 06:48:58;;;;;;;10.63;9.00;;;9.70;99.90;;;;;;4993826;28;20210;-72
2022/04/26 06:51:24;;;;;;;10.73;9.63;;;9.70;99.90;;;;;;5027934;28;20830;-73
2022/04/26 06:53:59;;;;;;;9.43;8.60;;;9.70;99.90;;;;;;5027700;28;20914;-73
2022/04/26 06:56:25;;;;;;;10.63;9.57;;;9.70;99.90;;;;;;5027440;28;20415;-72
2022/04/26 06:58:56;;;;;;;10.60;9.13;;;9.60;99.90;;;;;;5027505;28;20448;-73
2022/04/26 07:01:29;;;;;;;8.93;8.03;;;9.60;99.90;;;;;;5027673;28;20916;-72
2022/04/26 07:04:01;;;;;;;13.30;9.40;;;9.60;99.90;;;;;;5027938;28;20522;-72
2022/04/26 07:06:26;;;;;;;9.70;8.70;;;9.60;99.90;;;;;;5027922;28;20416;-72
2022/04/26 07:08:52;;;;;;;10.07;8.60;;;9.70;99.90;;;;;;5027850;28;20477;-72
2022/04/26 07:11:23;;;;;;;10.70;8.53;;;9.70;99.90;;;;;;5027789;28;20251;-72
2022/04/26 07:13:52;;;;;;;9.17;8.27;;;9.70;99.90;;;;;;5027759;28;20811;-73
2022/04/26 07:16:20;;;;;;;11.30;7.90;;;9.70;99.90;;;;;;5010245;28;20828;-72
2022/04/26 07:18:49;;;;;;;9.53;8.43;;;9.70;99.90;;;;;;5027040;28;20441;-72
2022/04/26 07:21:21;;;;;;;8.10;6.93;;;9.70;99.90;;;;;;5027276;28;20430;-72
2022/04/26 07:23:52;;;;;;;8.00;7.23;;;9.60;99.90;;;;;;5027179;28;20428;-73
2022/04/26 07:26:18;;;;;;;8.93;8.03;;;9.60;99.90;;;;;;5009758;28;20548;-72
2022/04/26 07:28:44;;;;;;;12.47;6.73;;;9.70;99.90;;;;;;5027247;28;20803;-73
2022/04/26 07:31:14;;;;;;;10.00;8.10;;;9.80;99.90;;;;;;5028775;28;20227;-72
2022/04/26 07:36:29;;;;;;;7.20;6.50;;;10.00;99.90;;;;;;5014341;28;21091;-72
2022/04/26 07:38:57;;;;;;;6.17;5.67;;;10.20;99.90;;;;;;5029140;28;20815;-72
2022/04/26 07:41:26;;;;;;;6.60;5.40;;;10.30;99.90;;;;;;5029393;28;20438;-73
2022/04/26 07:43:52;;;;;;;7.80;6.10;;;10.30;99.90;;;;;;5029508;28;20462;-72
2022/04/26 07:46:18;;;;;;;12.10;5.67;;;10.40;99.90;;;;;;5029785;28;20427;-72
2022/04/26 07:48:44;;;;;;;6.20;5.67;;;10.50;99.90;;;;;;5027646;28;20436;-73
2022/04/26 07:51:18;;;;;;;5.80;5.30;;;10.50;99.90;;;;;;5027671;28;20664;-72
2022/04/26 07:53:49;;;;;;;7.43;6.70;;;10.50;99.90;;;;;;5027337;28;20781;-73
2022/04/26 07:56:22;;;;;;;7.07;6.37;;;10.60;99.90;;;;;;5027502;28;20423;-73
2022/04/26 07:58:48;;;;;;;7.47;6.77;;;10.70;99.90;;;;;;5009307;28;20905;-72
2022/04/26 08:01:14;;;;;;;6.73;6.10;;;10.70;99.90;;;;;;5027352;28;20423;-72
2022/04/26 08:03:40;;;;;;;7.53;6.73;;;10.70;99.90;;;;;;5026623;28;20921;-72
2022/04/26 08:06:11;;;;;;;8.27;7.03;;;10.70;99.90;;;;;;5027276;28;20571;-72
2022/04/26 08:08:40;;;;;;;7.47;6.77;;;10.70;99.90;;;;;;5028656;28;20596;-72
2022/04/26 08:11:11;;;;;;;7.13;6.37;;;10.70;99.90;;;;;;5030866;28;20434;-73
2022/04/26 08:13:43;;;;;;;7.90;7.03;;;10.70;99.90;;;;;;5031103;28;20423;-72
2022/04/26 08:16:12;;;;;;;7.13;6.57;;;10.70;99.90;;;;;;5030997;28;20431;-72
2022/04/26 08:18:38;;;;;;;7.50;6.80;;;10.80;99.90;;;;;;5030807;28;20530;-72
2022/04/26 08:21:14;;;;;;;8.67;7.60;;;10.90;99.90;;;;;;5030887;28;20958;-72
2022/04/26 08:29:22;;;;;;;9.87;7.00;;;10.70;99.90;;;;;;5030432;28;20414;-72
2022/04/26 08:31:48;;;;;;;8.03;7.13;;;10.70;99.90;;;;;;5012550;28;20484;-72
2022/04/26 08:34:14;;;;;;;9.70;7.70;;;10.90;99.90;;;;;;5030592;28;20424;-72
2022/04/26 08:36:42;;;;;;;8.83;7.33;;;10.80;99.90;;;;;;5030568;28;20217;-72
2022/04/26 08:39:14;;;;;;;8.20;7.50;;;10.70;99.90;;;;;;5030782;28;20411;-72
2022/04/26 08:41:45;;;;;;;10.70;7.13;;;10.80;99.90;;;;;;5030956;28;20408;-72
2022/04/26 08:44:14;;;;;;;8.10;7.13;;;10.90;99.90;;;;;;5012936;28;20884;-72
2022/04/26 08:52:19;;;;;;;9.43;8.43;;;11.00;99.90;;;;;;5030707;28;20423;-73
2022/04/26 08:54:50;;;;;;;8.93;8.00;;;10.90;99.90;;;;;;5030512;28;20517;-72
2022/04/26 08:57:16;;;;;;;8.17;7.40;;;10.90;99.90;;;;;;5030156;28;20483;-72
2022/04/26 08:59:50;;;;;;;8.53;7.73;;;10.90;99.90;;;;;;5030299;28;20498;-71
2022/04/26 09:02:18;;;;;;;9.00;8.07;;;11.00;99.90;;;;;;5030903;28;20420;-72
2022/04/26 09:04:47;;;;;;;7.60;6.90;;;10.90;99.90;;;;;;5029881;28;20873;-72
2022/04/26 09:07:28;;;;;;;9.30;7.37;;;10.80;99.90;;;;;;5029855;28;20881;-72
2022/04/26 09:10:15;;;;;;;8.13;7.33;;;10.80;99.90;;;;;;5029550;28;20911;-72
2022/04/26 09:13:15;;;;;;;9.37;8.20;;;10.70;99.90;;;;;;5029632;28;20545;-72
2022/04/26 09:15:54;;;;;;;10.17;6.73;;;10.60;99.90;;;;;;5029305;28;20497;-72
2022/04/26 09:18:20;;;;;;;12.13;7.93;;;10.60;99.90;;;;;;5029035;28;20871;-72
2022/04/26 09:20:55;;;;;;;7.63;6.90;;;10.70;99.90;;;;;;5028345;28;20424;-72
2022/04/26 09:23:30;;;;;;;8.33;6.80;;;10.80;99.90;;;;;;5029122;28;20422;-72
2022/04/26 09:26:12;;;;;;;7.40;6.70;;;10.80;99.90;;;;;;5029073;28;21013;-72
2022/04/26 09:28:41;;;;;;;6.90;6.30;;;10.90;99.90;;;;;;5028946;28;20906;-72
2022/04/26 09:31:25;;;;;;;8.40;7.10;;;11.10;99.90;;;;;;5029354;28;21258;-72
2022/04/26 09:33:57;;;;;;;9.00;7.20;;;11.20;99.90;;;;;;5029192;28;20459;-72
2022/04/26 09:36:35;;;;;;;8.70;7.00;;;11.30;99.90;;;;;;5028595;28;20441;-72
2022/04/26 09:39:04;;;;;;;8.70;7.37;;;11.40;99.90;;;;;;5028811;28;20820;-72
2022/04/26 09:41:33;;;;;;;7.40;6.63;;;11.60;99.90;;;;;;5028804;28;20565;-72
2022/04/26 09:44:07;;;;;;;7.03;6.13;;;11.40;99.90;;;;;;5028773;28;20431;-73
2022/04/26 09:46:57;;;;;;;6.80;6.20;;;11.50;99.90;;;;;;5028675;28;20584;-72
2022/04/26 09:49:44;;;;;;;7.77;6.70;;;11.70;99.90;;;;;;5028851;28;20422;-72
2022/04/26 09:52:14;;;;;;;6.63;6.03;;;11.90;99.90;;;;;;5028669;28;20467;-72
2022/04/26 09:54:41;;;;;;;6.93;6.33;;;12.20;99.90;;;;;;5028608;28;20972;-72
2022/04/26 09:57:07;;;;;;;6.80;6.20;;;12.60;99.90;;;;;;5029004;28;20518;-72
2022/04/26 09:59:44;;;;;;;9.17;6.77;;;12.90;99.90;;;;;;5010420;28;20433;-72
2022/04/26 10:02:16;;;;;;;10.37;6.43;;;12.50;99.90;;;;;;5028322;28;20230;-72
2022/04/26 10:05:02;;;;;;;8.13;6.07;;;12.50;99.90;;;;;;5028371;28;20779;-72
2022/04/26 10:07:33;;;;;;;6.10;5.50;;;12.60;99.90;;;;;;5028347;28;20946;-72
2022/04/26 10:10:04;;;;;;;6.80;6.10;;;12.90;99.90;;;;;;5028212;28;20425;-73
2022/04/26 10:12:31;;;;;;;6.03;5.43;;;13.20;99.90;;;;;;5028035;28;20431;-73
2022/04/26 10:15:13;;;;;;;7.90;5.17;;;13.10;99.90;;;;;;5027953;28;20430;-74
2022/04/26 10:18:21;;;;;;;7.07;6.47;;;13.10;99.90;;;;;;5028331;28;20585;-75
2022/04/26 10:20:52;;;;;;;9.87;5.50;;;12.80;99.90;;;;;;5009796;28;20517;-73
2022/04/26 10:23:26;;;;;;;6.60;4.90;;;12.90;99.90;;;;;;5027631;28;20807;-73
2022/04/26 10:26:13;;;;;;;10.50;7.03;;;12.70;99.90;;;;;;5010117;28;20465;-72
2022/04/26 10:28:58;;;;;;;6.70;5.87;;;12.50;99.90;;;;;;5027608;28;20438;-73
2022/04/26 10:31:38;;;;;;;8.37;5.60;;;12.50;99.90;;;;;;5028556;28;20421;-75
2022/04/26 10:34:29;;;;;;;7.63;5.07;;;13.30;99.90;;;;;;5010701;28;20426;-71
2022/04/26 10:37:06;;;;;;;5.63;5.13;;;14.00;99.90;;;;;;5027437;28;20475;-72
2022/04/26 10:39:39;;;;;;;8.00;6.30;;;13.90;99.90;;;;;;5027565;28;20424;-72
2022/04/26 10:42:27;;;;;;;10.13;5.93;;;13.90;99.90;;;;;;5027516;28;20428;-72
2022/04/26 10:45:07;;;;;;;7.67;5.17;;;14.00;99.90;;;;;;5027354;28;20502;-72
2022/04/26 10:47:33;;;;;;;6.27;5.67;;;14.10;99.90;;;;;;5027402;28;20518;-72
2022/04/26 10:49:59;;;;;;;8.00;6.20;;;14.20;99.90;;;;;;5027394;28;20430;-72
2022/04/26 10:52:35;;;;;;;6.80;5.80;;;14.50;99.90;;;;;;5009249;28;20485;-71
2022/04/26 10:55:10;;;;;;;5.40;4.60;;;15.00;99.90;;;;;;5009474;28;20486;-72
2022/04/26 10:57:50;;;;;;;5.30;4.90;;;15.70;99.90;;;;;;5009649;28;20501;-71
2022/04/26 11:00:18;;;;;;;5.87;4.73;;;15.80;99.90;;;;;;5027268;28;20705;-74
2022/04/26 11:02:48;;;;;;;6.43;4.43;;;16.40;99.90;;;;;;5027506;28;20783;-74
2022/04/26 11:05:23;;;;;;;6.60;4.83;;;17.10;99.90;;;;;;5027305;28;20482;-74
2022/04/26 11:07:49;;;;;;;5.90;5.30;;;16.80;97.90;;;;;;5027162;28;20445;-73
2022/04/26 11:10:23;;;;;;;5.13;4.63;;;16.30;98.00;;;;;;5009057;28;20419;-73
2022/04/26 11:12:50;;;;;;;5.20;4.47;;;16.00;99.60;;;;;;5027122;28;20420;-73
2022/04/26 11:15:22;;;;;;;5.50;5.00;;;15.70;99.90;;;;;;5026995;28;20445;-73
2022/04/26 11:17:49;;;;;;;5.43;4.93;;;15.80;99.90;;;;;;5027024;28;20589;-74
2022/04/26 11:20:18;;;;;;;5.80;5.03;;;15.50;98.40;;;;;;5027478;28;20431;-74
2022/04/26 11:22:48;;;;;;;7.80;4.30;;;15.30;99.90;;;;;;5009159;28;20430;-73
2022/04/26 11:28:09;;;;;;;4.10;3.80;;;14.90;99.90;;;;;;5026825;28;20988;-73
2022/04/26 11:30:36;;;;;;;6.27;3.63;;;15.40;99.90;;;;;;5026960;28;20446;-73
2022/04/26 11:33:10;;;;;;;5.50;3.47;;;15.40;98.30;;;;;;5008752;28;20490;-73
2022/04/26 11:35:37;;;;;;;11.27;3.73;;;15.20;95.20;;;;;;5026882;28;20416;-72
2022/04/26 11:38:14;;;;;;;4.60;4.10;;;14.80;96.10;;;;;;5027024;28;21041;-73
2022/04/26 11:40:48;;;;;;;5.60;4.00;;;14.40;96.40;;;;;;5027052;28;21242;-72
2022/04/26 11:43:16;;;;;;;6.60;3.70;;;14.00;96.10;;;;;;5028446;28;20426;-73
2022/04/26 11:45:44;;;;;;;4.97;3.53;;;13.60;95.50;;;;;;5031410;28;20431;-73
2022/04/26 11:48:17;;;;;;;5.97;3.00;;;13.30;97.60;;;;;;5031309;28;20446;-73
2022/04/26 11:50:45;;;;;;;2.87;2.67;;;13.10;97.30;;;;;;5031336;28;20773;-73
2022/04/26 11:53:17;;;;;;;3.97;2.90;;;13.20;99.40;;;;;;5013365;28;20986;-72
2022/04/26 11:55:45;;;;;;;2.87;1.97;;;14.20;95.80;;;;;;5030924;28;20481;-73
2022/04/26 11:58:20;;;;;;;2.80;2.60;;;14.80;93.40;;;;;;5012485;28;20474;-73
2022/04/26 12:01:07;;;;;;;4.87;2.50;;;15.50;90.30;;;;;;5032195;28;20565;-73
2022/04/26 12:03:41;;;;;;;8.53;3.20;;;16.10;95.40;;;;;;5031998;28;20411;-73
2022/04/26 12:06:09;;;;;;;3.47;2.63;;;16.70;91.80;;;;;;5031736;28;20414;-73
2022/04/26 12:08:45;;;;;;;7.70;3.30;;;16.80;86.70;;;;;;5031606;28;20435;-73
2022/04/26 12:11:13;;;;;;;4.23;2.80;;;17.20;95.00;;;;;;5030925;28;20420;-73
2022/04/26 12:13:39;;;;;;;8.90;3.70;;;16.80;92.90;;;;;;5031030;28;20455;-73
2022/04/26 12:16:21;;;;;;;4.67;3.13;;;15.90;93.00;;;;;;5031266;28;20463;-74
2022/04/26 12:18:55;;;;;;;1.83;1.70;;;15.30;95.50;;;;;;5030196;28;20223;-72
2022/04/26 12:21:22;;;;;;;2.27;2.07;;;14.70;94.80;;;;;;5030354;28;20517;-73
2022/04/26 12:24:07;;;;;;;2.60;2.20;;;14.20;97.30;;;;;;5030286;28;20441;-72
2022/04/26 12:26:33;;;;;;;3.20;2.90;;;13.80;99.90;;;;;;5030020;28;20934;-73
2022/04/26 12:28:59;;;;;;;3.77;2.67;;;13.60;99.90;;;;;;5011886;28;20446;-73
2022/04/26 12:31:29;;;;;;;5.03;2.27;;;13.40;99.90;;;;;;5030020;28;20187;-73
2022/04/26 12:34:13;;;;;;;6.30;2.87;;;13.40;99.90;;;;;;5030337;28;20909;-72
2022/04/26 12:37:10;;;;;;;3.20;2.50;;;13.50;99.90;;;;;;5014378;28;20517;-72
2022/04/26 12:39:43;;;;;;;3.73;2.90;;;13.60;99.90;;;;;;5030041;28;20483;-73
2022/04/26 12:42:34;;;;;;;4.20;2.80;;;13.60;99.90;;;;;;5029830;28;20425;-73
2022/04/26 12:45:06;;;;;;;1.80;1.70;;;13.90;99.90;;;;;;5029842;28;20445;-73
2022/04/26 12:50:28;;;;;;;3.43;1.97;;;15.20;95.60;;;;;;5031622;28;20422;-73
2022/04/26 12:53:08;;;;;;;2.13;1.90;;;15.80;95.20;;;;;;5029943;28;20430;-74
2022/04/26 12:55:42;;;;;;;2.60;2.33;;;15.70;92.80;;;;;;5028474;28;20946;-73
2022/04/26 12:58:07;;;;;;;2.80;1.80;;;15.20;92.70;;;;;;5029475;28;20916;-72
2022/04/26 13:00:41;;;;;;;2.67;2.47;;;15.50;94.40;;;;;;5029622;28;20421;-73
2022/04/26 13:03:10;;;;;;;4.40;2.33;;;15.30;93.30;;;;;;5029443;28;20650;-73
2022/04/26 13:06:09;;;;;;;2.73;2.53;;;15.60;96.20;;;;;;5011303;28;20427;-73
2022/04/26 13:08:35;;;;;;;2.40;2.30;;;15.50;94.10;;;;;;5002794;28;20984;-72
2022/04/26 13:11:01;;;;;;;3.23;3.00;;;15.70;95.50;;;;;;5029361;28;20419;-73
2022/04/26 13:13:27;;;;;;;3.90;2.70;;;15.40;95.60;;;;;;5029257;28;20419;-73
2022/04/26 13:15:53;;;;;;;2.80;2.60;;;15.20;96.50;;;;;;5029461;28;20176;-73
2022/04/26 13:18:18;;;;;;;2.90;2.70;;;15.10;98.20;;;;;;5011190;28;20290;-72
2022/04/26 13:20:45;;;;;;;3.57;3.27;;;15.00;98.50;;;;;;5010946;28;20189;-73
2022/04/26 13:23:16;;;;;;;3.30;3.00;;;15.30;97.00;;;;;;5029036;28;20181;-73
2022/04/26 13:25:43;;;;;;;2.50;2.30;;;14.90;96.10;;;;;;5028955;28;20795;-73
2022/04/26 13:28:10;;;;;;;3.80;2.50;;;14.80;97.20;;;;;;5010563;28;20440;-73
2022/04/26 13:30:36;;;;;;;2.70;2.37;;;14.80;96.50;;;;;;5010936;28;20419;-74
2022/04/26 13:33:03;;;;;;;5.77;4.70;;;14.90;93.90;;;;;;5010607;28;20504;-73
2022/04/26 13:35:29;;;;;;;6.33;5.30;;;14.50;97.70;;;;;;5010591;28;20437;-72
2022/04/26 13:37:57;;;;;;;6.60;5.90;;;14.30;99.90;;;;;;5028817;28;20458;-73
2022/04/26 13:40:23;;;;;;;6.63;4.87;;;13.80;99.90;;;;;;5028633;28;20859;-73
2022/04/26 13:42:48;;;;;;;9.43;6.30;;;13.50;99.90;;;;;;5028569;28;20415;-73
2022/04/26 13:45:14;;;;;;;6.27;5.67;;;13.70;99.90;;;;;;5028633;28;20184;-73
2022/04/26 13:47:40;;;;;;;4.23;3.93;;;14.00;99.90;;;;;;5028478;28;20204;-72
2022/04/26 13:50:07;;;;;;;5.57;4.90;;;14.00;99.90;;;;;;5028563;28;20219;-72
2022/04/26 13:52:34;;;;;;;4.60;4.10;;;14.40;99.90;;;;;;5028350;28;20517;-72
2022/04/26 13:55:00;;;;;;;5.37;4.70;;;14.80;99.90;;;;;;5010418;28;20859;-73
2022/04/26 13:57:25;;;;;;;5.50;5.00;;;15.00;99.90;;;;;;5028203;28;20485;-72
2022/04/26 13:59:51;;;;;;;11.00;5.23;;;14.60;99.90;;;;;;5028311;28;20767;-72
2022/04/26 14:02:19;;;;;;;9.17;5.70;;;14.40;99.90;;;;;;5028452;28;20198;-72
2022/04/26 14:04:47;;;;;;;4.80;4.40;;;14.30;99.90;;;;;;5028128;28;20426;-73
2022/04/26 14:07:12;;;;;;;6.43;5.30;;;14.20;99.90;;;;;;5009918;28;21395;-72
2022/04/26 14:09:38;;;;;;;7.57;4.70;;;14.60;99.90;;;;;;5028088;28;20423;-72
2022/04/26 14:12:05;;;;;;;6.70;5.00;;;14.90;99.90;;;;;;5010103;28;20188;-73
2022/04/26 14:22:43;;;;;;;6.80;5.03;;;15.20;99.30;;;;;;5028055;28;20421;-74
2022/04/26 14:25:11;;;;;;;5.30;4.80;;;14.70;99.90;;;;;;5027787;28;20434;-73
2022/04/26 14:27:38;;;;;;;5.83;5.20;;;14.30;99.90;;;;;;5027766;28;20441;-73
2022/04/26 14:30:07;;;;;;;4.87;4.30;;;13.90;99.90;;;;;;5010011;28;20802;-72
2022/04/26 14:32:33;;;;;;;5.43;4.93;;;13.70;99.90;;;;;;5027641;28;20458;-72
2022/04/26 14:34:58;;;;;;;8.40;5.67;;;13.60;99.90;;;;;;5027622;28;20508;-73
2022/04/26 14:37:24;;;;;;;5.30;4.80;;;13.60;99.90;;;;;;5027587;28;20479;-73
2022/04/26 14:39:51;;;;;;;8.23;4.93;;;13.50;99.90;;;;;;5027567;28;20180;-73
2022/04/26 14:42:17;;;;;;;7.80;5.40;;;13.40;99.90;;;;;;5027880;28;20699;-72
2022/04/26 14:44:46;;;;;;;5.33;4.83;;;13.40;99.90;;;;;;5027469;28;20460;-72
2022/04/26 14:47:13;;;;;;;6.33;5.73;;;13.20;99.90;;;;;;5027407;28;20991;-72
2022/04/26 14:49:39;;;;;;;6.10;5.50;;;13.10;99.90;;;;;;5027466;28;20939;-72
2022/04/26 14:52:08;;;;;;;9.07;7.03;;;12.90;99.90;;;;;;5027479;28;20436;-73
2022/04/26 14:54:35;;;;;;;6.80;5.73;;;12.70;99.90;;;;;;4993210;28;20468;-74
2022/04/26 14:57:01;;;;;;;6.80;6.07;;;12.60;99.90;;;;;;5027363;28;20545;-72
2022/04/26 14:59:26;;;;;;;8.10;5.60;;;12.70;99.90;;;;;;5027346;28;20417;-73
2022/04/26 15:01:53;;;;;;;9.37;6.17;;;12.60;99.90;;;;;;5027203;28;20417;-73
2022/04/26 15:04:21;;;;;;;6.30;5.47;;;12.30;99.90;;;;;;5027227;28;20590;-72
2022/04/26 15:06:47;;;;;;;7.07;5.03;;;12.20;99.90;;;;;;5027247;28;20424;-72
2022/04/26 15:17:28;;;;;;;3.77;3.43;;;12.40;99.90;;;;;;5026732;28;20523;-73
2022/04/26 15:19:54;;;;;;;4.17;3.80;;;12.50;99.90;;;;;;5009124;28;20429;-72
2022/04/26 15:22:20;;;;;;;8.03;4.37;;;12.20;99.90;;;;;;5009388;28;20884;-73
2022/04/26 15:24:46;;;;;;;6.33;3.87;;;11.90;99.90;;;;;;5009146;28;20425;-73
2022/04/26 15:27:14;;;;;;;3.77;3.57;;;11.70;99.90;;;;;;5009178;28;21019;-72
2022/04/26 15:29:41;;;;;;;10.17;4.30;;;11.70;99.90;;;;;;5027014;28;20428;-73
2022/04/26 15:32:07;;;;;;;4.73;4.17;;;11.80;99.90;;;;;;5027123;28;20420;-72
2022/04/26 15:34:33;;;;;;;4.07;3.63;;;11.90;99.90;;;;;;5026880;28;20796;-72
2022/04/26 15:36:58;;;;;;;5.67;3.60;;;11.60;99.90;;;;;;5026817;28;20464;-73
2022/04/26 15:39:25;;;;;;;3.83;3.03;;;11.60;99.90;;;;;;5027083;28;20189;-72
2022/04/26 15:41:51;;;;;;;3.27;3.03;;;11.70;99.90;;;;;;5027407;28;20305;-73
2022/04/26 15:44:17;;;;;;;3.43;3.13;;;11.80;99.90;;;;;;5009340;28;20444;-72
2022/04/26 15:46:43;;;;;;;5.00;3.53;;;11.90;99.90;;;;;;5027193;28;20912;-73
2022/04/26 15:49:09;;;;;;;5.53;3.80;;;11.90;99.90;;;;;;5027024;28;20419;-73
2022/04/26 15:51:35;;;;;;;4.83;4.27;;;11.70;99.90;;;;;;5027098;28;20452;-73
2022/04/26 15:54:02;;;;;;;5.43;4.03;;;11.70;99.90;;;;;;5027013;28;20419;-73
2022/04/26 15:56:28;;;;;;;3.47;3.23;;;11.50;99.90;;;;;;5009181;28;20425;-72
2022/04/26 15:58:54;;;;;;;4.33;3.93;;;11.50;99.90;;;;;;5026887;28;20476;-73
2022/04/26 16:01:19;;;;;;;5.87;4.27;;;11.80;99.90;;;;;;5026776;28;20187;-72
2022/04/26 16:03:45;;;;;;;5.23;3.63;;;11.50;99.90;;;;;;5026789;28;20918;-72
2022/04/26 16:06:11;;;;;;;5.40;3.80;;;11.40;99.90;;;;;;5009062;28;20214;-73
2022/04/26 16:08:37;;;;;;;4.17;3.63;;;11.50;99.90;;;;;;5026951;28;20600;-72
2022/04/26 16:22:03;;;;;;;4.53;4.17;;;11.70;99.90;;;;;;5027247;28;20431;-72
2022/04/26 16:24:29;;;;;;;4.97;4.47;;;11.70;99.90;;;;;;5027216;28;20416;-73
2022/04/26 16:26:55;;;;;;;5.50;5.00;;;11.70;99.90;;;;;;5028822;28;20431;-73
2022/04/26 16:29:21;;;;;;;5.37;4.73;;;11.80;99.90;;;;;;5028505;28;20521;-73
2022/04/26 16:31:48;;;;;;;7.40;5.10;;;11.70;99.90;;;;;;5030690;28;20530;-73
2022/04/26 16:34:13;;;;;;;6.90;4.97;;;11.70;99.90;;;;;;5012896;28;20429;-73
2022/04/26 16:36:39;;;;;;;5.87;5.27;;;11.70;99.90;;;;;;5049540;28;20420;-75
2022/04/26 16:39:06;;;;;;;6.53;5.03;;;11.70;99.90;;;;;;5054631;28;20186;-74
2022/04/26 16:41:32;;;;;;;6.47;5.80;;;11.70;99.90;;;;;;5053730;28;20162;-77
2022/04/26 16:43:58;;;;;;;6.80;6.10;;;11.60;99.90;;;;;;5020975;28;20468;-74
2022/04/26 16:46:25;;;;;;;8.27;6.40;;;11.40;99.90;;;;;;5014032;28;20455;-73
2022/04/26 16:48:51;;;;;;;10.50;8.73;;;11.30;99.90;;;;;;5030829;28;20197;-73
2022/04/26 16:51:18;;;;;;;10.10;6.87;;;11.10;99.90;;;;;;5030320;28;20436;-73
2022/04/26 16:53:44;;;;;;;11.70;9.40;;;11.00;99.90;;;;;;5030770;28;20185;-73
2022/04/26 16:56:10;;;;;;;11.20;9.33;;;11.00;99.90;;;;;;5030255;28;20447;-73
2022/04/26 16:58:36;;;;;;;15.17;12.00;;;10.90;99.90;;;;;;5030082;28;20296;-73
2022/04/26 17:01:02;;;;;;;18.10;8.70;;;10.70;99.90;;;;;;5012477;28;20613;-75
2022/04/26 17:03:27;;;;;;;8.60;7.03;;;10.40;99.90;;;;;;5030821;28;20233;-74
2022/04/26 17:05:54;;;;;;;12.77;8.17;;;10.10;99.90;;;;;;5030386;28;20434;-72
2022/04/26 17:08:20;;;;;;;18.10;10.60;;;9.80;99.90;;;;;;5030202;28;20298;-73
2022/04/26 17:10:47;;;;;;;17.27;10.10;;;9.70;99.90;;;;;;5029847;28;20503;-73
2022/04/26 17:13:14;;;;;;;14.47;11.30;;;9.50;99.90;;;;;;5030183;28;20891;-73
2022/04/26 17:15:40;;;;;;;14.67;13.00;;;9.10;99.90;;;;;;5030209;28;20905;-72
2022/04/26 17:18:07;;;;;;;17.63;8.70;;;8.90;99.90;;;;;;5029547;28;21005;-73
2022/04/26 17:20:36;;;;;;;14.63;8.57;;;8.40;99.90;;;;;;5012489;28;20419;-72
2022/04/26 17:23:03;;;;;;;11.13;8.47;;;8.30;99.90;;;;;;5029877;28;20493;-73
2022/04/26 17:25:30;;;;;;;15.30;10.23;;;8.20;99.90;;;;;;5011675;28;20937;-73
2022/04/26 17:27:58;;;;;;;19.27;13.57;;;8.30;99.90;;;;;;5029985;28;20480;-73